sensor_id;sensor_type;location;lat;lon;timestamp;P1;durP1;ratioP1;P2;durP2;ratioP2
19747;SDS011;10032;51.386;12.516;2022-12-20T00:00:14;9.43;;;6.10;;
19747;SDS011;10032;51.386;12.516;2022-12-20T00:02:40;12.03;;;6.23;;
19747;SDS011;10032;51.386;12.516;2022-12-20T00:05:05;10.37;;;6.77;;
19747;SDS011;10032;51.386;12.516;2022-12-20T00:07:31;12.53;;;6.63;;
19747;SDS011;10032;51.386;12.516;2022-12-20T00:09:56;14.73;;;6.20;;
19747;SDS011;10032;51.386;12.516;2022-12-20T00:12:22;12.77;;;7.43;;
19747;SDS011;10032;51.386;12.516;2022-12-20T00:14:47;8.70;;;5.17;;
19747;SDS011;10032;51.386;12.516;2022-12-20T00:17:13;13.03;;;7.13;;
19747;SDS011;10032;51.386;12.516;2022-12-20T00:19:38;12.40;;;7.50;;
19747;SDS011;10032;51.386;12.516;2022-12-20T00:22:04;9.73;;;6.40;;
19747;SDS011;10032;51.386;12.516;2022-12-20T00:24:29;10.03;;;6.27;;
19747;SDS011;10032;51.386;12.516;2022-12-20T00:26:55;10.67;;;6.63;;
19747;SDS011;10032;51.386;12.516;2022-12-20T00:29:20;9.17;;;6.47;;
19747;SDS011;10032;51.386;12.516;2022-12-20T00:31:45;15.93;;;6.60;;
19747;SDS011;10032;51.386;12.516;2022-12-20T00:34:11;9.37;;;6.33;;
19747;SDS011;10032;51.386;12.516;2022-12-20T00:36:36;11.37;;;6.60;;
19747;SDS011;10032;51.386;12.516;2022-12-20T00:39:03;10.07;;;6.00;;
19747;SDS011;10032;51.386;12.516;2022-12-20T00:41:30;10.33;;;5.80;;
19747;SDS011;10032;51.386;12.516;2022-12-20T00:43:57;11.57;;;5.90;;
19747;SDS011;10032;51.386;12.516;2022-12-20T00:46:22;9.83;;;6.53;;
19747;SDS011;10032;51.386;12.516;2022-12-20T00:48:48;9.70;;;6.27;;
19747;SDS011;10032;51.386;12.516;2022-12-20T00:51:16;10.00;;;6.43;;
19747;SDS011;10032;51.386;12.516;2022-12-20T00:53:43;9.30;;;6.40;;
19747;SDS011;10032;51.386;12.516;2022-12-20T00:56:09;10.90;;;6.43;;
19747;SDS011;10032;51.386;12.516;2022-12-20T00:58:37;10.23;;;6.33;;
19747;SDS011;10032;51.386;12.516;2022-12-20T01:01:10;7.70;;;5.47;;
19747;SDS011;10032;51.386;12.516;2022-12-20T01:03:49;10.37;;;6.57;;
19747;SDS011;10032;51.386;12.516;2022-12-20T01:06:16;13.03;;;7.20;;
19747;SDS011;10032;51.386;12.516;2022-12-20T01:08:42;11.20;;;6.90;;
19747;SDS011;10032;51.386;12.516;2022-12-20T01:13:40;8.80;;;6.43;;
19747;SDS011;10032;51.386;12.516;2022-12-20T01:16:18;9.13;;;6.10;;
19747;SDS011;10032;51.386;12.516;2022-12-20T01:18:47;8.40;;;6.07;;
19747;SDS011;10032;51.386;12.516;2022-12-20T01:21:14;11.10;;;7.60;;
19747;SDS011;10032;51.386;12.516;2022-12-20T01:23:41;11.20;;;7.10;;
19747;SDS011;10032;51.386;12.516;2022-12-20T01:26:09;10.27;;;6.30;;
19747;SDS011;10032;51.386;12.516;2022-12-20T01:28:38;8.70;;;6.43;;
19747;SDS011;10032;51.386;12.516;2022-12-20T01:31:05;12.23;;;7.77;;
19747;SDS011;10032;51.386;12.516;2022-12-20T01:33:35;11.13;;;7.03;;
19747;SDS011;10032;51.386;12.516;2022-12-20T01:36:02;12.07;;;6.37;;
19747;SDS011;10032;51.386;12.516;2022-12-20T01:38:29;8.87;;;6.27;;
19747;SDS011;10032;51.386;12.516;2022-12-20T01:40:55;17.47;;;7.00;;
19747;SDS011;10032;51.386;12.516;2022-12-20T01:43:21;11.90;;;7.10;;
19747;SDS011;10032;51.386;12.516;2022-12-20T01:45:47;10.37;;;6.60;;
19747;SDS011;10032;51.386;12.516;2022-12-20T01:48:13;10.20;;;6.67;;
19747;SDS011;10032;51.386;12.516;2022-12-20T01:50:43;11.63;;;6.87;;
19747;SDS011;10032;51.386;12.516;2022-12-20T01:53:10;13.97;;;7.83;;
19747;SDS011;10032;51.386;12.516;2022-12-20T01:55:36;11.37;;;7.20;;
19747;SDS011;10032;51.386;12.516;2022-12-20T01:58:02;8.57;;;5.33;;
19747;SDS011;10032;51.386;12.516;2022-12-20T02:00:33;12.47;;;7.80;;
19747;SDS011;10032;51.386;12.516;2022-12-20T02:03:03;13.40;;;7.10;;
19747;SDS011;10032;51.386;12.516;2022-12-20T02:05:34;12.90;;;7.27;;
19747;SDS011;10032;51.386;12.516;2022-12-20T02:08:02;10.83;;;6.63;;
19747;SDS011;10032;51.386;12.516;2022-12-20T02:10:33;13.00;;;7.17;;
19747;SDS011;10032;51.386;12.516;2022-12-20T02:13:14;12.23;;;6.33;;
19747;SDS011;10032;51.386;12.516;2022-12-20T02:15:56;14.70;;;8.00;;
19747;SDS011;10032;51.386;12.516;2022-12-20T02:18:24;9.70;;;5.60;;
19747;SDS011;10032;51.386;12.516;2022-12-20T02:34:24;10.53;;;5.90;;
19747;SDS011;10032;51.386;12.516;2022-12-20T02:36:50;8.60;;;6.37;;
19747;SDS011;10032;51.386;12.516;2022-12-20T02:39:16;10.53;;;6.80;;
19747;SDS011;10032;51.386;12.516;2022-12-20T02:41:42;10.67;;;6.43;;
19747;SDS011;10032;51.386;12.516;2022-12-20T02:44:14;11.47;;;6.47;;
19747;SDS011;10032;51.386;12.516;2022-12-20T02:47:01;11.63;;;6.63;;
19747;SDS011;10032;51.386;12.516;2022-12-20T02:49:33;9.70;;;6.20;;
19747;SDS011;10032;51.386;12.516;2022-12-20T02:52:02;12.37;;;6.80;;
19747;SDS011;10032;51.386;12.516;2022-12-20T02:54:30;14.40;;;8.50;;
19747;SDS011;10032;51.386;12.516;2022-12-20T02:56:59;13.10;;;8.57;;
19747;SDS011;10032;51.386;12.516;2022-12-20T02:59:34;8.97;;;6.63;;
19747;SDS011;10032;51.386;12.516;2022-12-20T03:02:05;13.30;;;7.63;;
19747;SDS011;10032;51.386;12.516;2022-12-20T03:04:33;15.50;;;8.33;;
19747;SDS011;10032;51.386;12.516;2022-12-20T03:07:06;11.07;;;6.77;;
19747;SDS011;10032;51.386;12.516;2022-12-20T03:09:36;11.50;;;7.17;;
19747;SDS011;10032;51.386;12.516;2022-12-20T03:12:04;12.53;;;7.37;;
19747;SDS011;10032;51.386;12.516;2022-12-20T03:14:30;10.80;;;6.77;;
19747;SDS011;10032;51.386;12.516;2022-12-20T03:16:55;11.57;;;7.17;;
19747;SDS011;10032;51.386;12.516;2022-12-20T03:19:21;11.43;;;6.23;;
19747;SDS011;10032;51.386;12.516;2022-12-20T03:21:46;11.60;;;7.40;;
19747;SDS011;10032;51.386;12.516;2022-12-20T03:24:12;13.83;;;7.63;;
19747;SDS011;10032;51.386;12.516;2022-12-20T03:26:38;13.17;;;7.90;;
19747;SDS011;10032;51.386;12.516;2022-12-20T03:29:05;15.67;;;9.03;;
19747;SDS011;10032;51.386;12.516;2022-12-20T03:31:30;10.00;;;7.30;;
19747;SDS011;10032;51.386;12.516;2022-12-20T03:33:56;13.10;;;7.70;;
19747;SDS011;10032;51.386;12.516;2022-12-20T03:36:22;12.23;;;7.57;;
19747;SDS011;10032;51.386;12.516;2022-12-20T03:38:51;16.13;;;8.23;;
19747;SDS011;10032;51.386;12.516;2022-12-20T03:41:18;12.60;;;7.67;;
19747;SDS011;10032;51.386;12.516;2022-12-20T03:43:45;16.10;;;8.73;;
19747;SDS011;10032;51.386;12.516;2022-12-20T03:46:11;13.20;;;8.40;;
19747;SDS011;10032;51.386;12.516;2022-12-20T03:48:37;15.40;;;8.20;;
19747;SDS011;10032;51.386;12.516;2022-12-20T03:51:03;14.20;;;7.67;;
19747;SDS011;10032;51.386;12.516;2022-12-20T03:53:28;15.83;;;9.13;;
19747;SDS011;10032;51.386;12.516;2022-12-20T03:55:54;13.47;;;7.77;;
19747;SDS011;10032;51.386;12.516;2022-12-20T03:58:20;15.67;;;9.37;;
19747;SDS011;10032;51.386;12.516;2022-12-20T04:00:45;12.17;;;7.80;;
19747;SDS011;10032;51.386;12.516;2022-12-20T04:03:11;11.90;;;7.77;;
19747;SDS011;10032;51.386;12.516;2022-12-20T04:05:37;10.43;;;7.17;;
19747;SDS011;10032;51.386;12.516;2022-12-20T04:08:02;15.43;;;8.37;;
19747;SDS011;10032;51.386;12.516;2022-12-20T04:10:28;13.60;;;7.67;;
19747;SDS011;10032;51.386;12.516;2022-12-20T04:12:53;14.43;;;7.83;;
19747;SDS011;10032;51.386;12.516;2022-12-20T04:15:19;14.37;;;8.13;;
19747;SDS011;10032;51.386;12.516;2022-12-20T04:17:44;15.80;;;7.47;;
19747;SDS011;10032;51.386;12.516;2022-12-20T04:20:12;14.17;;;7.93;;
19747;SDS011;10032;51.386;12.516;2022-12-20T04:22:45;13.90;;;7.33;;
19747;SDS011;10032;51.386;12.516;2022-12-20T04:25:16;12.93;;;8.27;;
19747;SDS011;10032;51.386;12.516;2022-12-20T04:27:43;15.70;;;8.57;;
19747;SDS011;10032;51.386;12.516;2022-12-20T04:30:08;11.30;;;7.70;;
19747;SDS011;10032;51.386;12.516;2022-12-20T04:32:35;13.23;;;7.23;;
19747;SDS011;10032;51.386;12.516;2022-12-20T04:35:00;13.50;;;8.13;;
19747;SDS011;10032;51.386;12.516;2022-12-20T04:37:26;13.43;;;8.10;;
19747;SDS011;10032;51.386;12.516;2022-12-20T04:39:51;12.30;;;8.57;;
19747;SDS011;10032;51.386;12.516;2022-12-20T04:42:17;13.10;;;8.47;;
19747;SDS011;10032;51.386;12.516;2022-12-20T04:44:42;14.47;;;8.10;;
19747;SDS011;10032;51.386;12.516;2022-12-20T04:47:08;12.07;;;7.90;;
19747;SDS011;10032;51.386;12.516;2022-12-20T04:49:34;11.40;;;7.93;;
19747;SDS011;10032;51.386;12.516;2022-12-20T04:52:00;12.20;;;7.17;;
19747;SDS011;10032;51.386;12.516;2022-12-20T04:54:46;12.40;;;7.47;;
19747;SDS011;10032;51.386;12.516;2022-12-20T04:57:12;14.20;;;9.13;;
19747;SDS011;10032;51.386;12.516;2022-12-20T04:59:37;14.00;;;8.17;;
19747;SDS011;10032;51.386;12.516;2022-12-20T05:02:03;11.93;;;7.97;;
19747;SDS011;10032;51.386;12.516;2022-12-20T05:04:28;11.03;;;7.33;;
19747;SDS011;10032;51.386;12.516;2022-12-20T05:06:53;12.77;;;7.90;;
19747;SDS011;10032;51.386;12.516;2022-12-20T05:09:19;12.93;;;8.10;;
19747;SDS011;10032;51.386;12.516;2022-12-20T05:11:44;12.47;;;6.80;;
19747;SDS011;10032;51.386;12.516;2022-12-20T05:14:10;11.87;;;7.43;;
19747;SDS011;10032;51.386;12.516;2022-12-20T05:16:35;12.47;;;7.60;;
19747;SDS011;10032;51.386;12.516;2022-12-20T05:19:03;11.87;;;7.50;;
19747;SDS011;10032;51.386;12.516;2022-12-20T05:21:28;12.27;;;7.67;;
19747;SDS011;10032;51.386;12.516;2022-12-20T05:24:12;12.43;;;7.33;;
19747;SDS011;10032;51.386;12.516;2022-12-20T05:26:56;11.77;;;7.30;;
19747;SDS011;10032;51.386;12.516;2022-12-20T05:29:22;12.10;;;7.70;;
19747;SDS011;10032;51.386;12.516;2022-12-20T05:31:47;13.40;;;6.83;;
19747;SDS011;10032;51.386;12.516;2022-12-20T05:34:13;12.13;;;7.80;;
19747;SDS011;10032;51.386;12.516;2022-12-20T05:36:38;13.07;;;7.83;;
19747;SDS011;10032;51.386;12.516;2022-12-20T05:39:04;12.73;;;8.13;;
19747;SDS011;10032;51.386;12.516;2022-12-20T05:41:30;13.57;;;7.53;;
19747;SDS011;10032;51.386;12.516;2022-12-20T05:43:56;11.83;;;7.47;;
19747;SDS011;10032;51.386;12.516;2022-12-20T05:46:21;11.63;;;6.77;;
19747;SDS011;10032;51.386;12.516;2022-12-20T05:48:47;13.80;;;7.30;;
19747;SDS011;10032;51.386;12.516;2022-12-20T05:51:12;10.23;;;7.30;;
19747;SDS011;10032;51.386;12.516;2022-12-20T05:53:38;11.83;;;8.03;;
19747;SDS011;10032;51.386;12.516;2022-12-20T05:56:04;13.07;;;9.10;;
19747;SDS011;10032;51.386;12.516;2022-12-20T05:58:32;11.63;;;8.77;;
19747;SDS011;10032;51.386;12.516;2022-12-20T06:01:01;10.90;;;8.23;;
19747;SDS011;10032;51.386;12.516;2022-12-20T06:03:28;10.10;;;7.83;;
19747;SDS011;10032;51.386;12.516;2022-12-20T06:05:54;14.43;;;7.70;;
19747;SDS011;10032;51.386;12.516;2022-12-20T06:08:20;13.03;;;7.23;;
19747;SDS011;10032;51.386;12.516;2022-12-20T06:10:47;13.63;;;7.60;;
19747;SDS011;10032;51.386;12.516;2022-12-20T06:13:14;13.50;;;7.13;;
19747;SDS011;10032;51.386;12.516;2022-12-20T06:15:39;10.83;;;8.13;;
19747;SDS011;10032;51.386;12.516;2022-12-20T06:18:05;11.73;;;8.57;;
19747;SDS011;10032;51.386;12.516;2022-12-20T06:20:31;11.33;;;8.77;;
19747;SDS011;10032;51.386;12.516;2022-12-20T06:22:57;12.20;;;7.97;;
19747;SDS011;10032;51.386;12.516;2022-12-20T06:25:23;11.03;;;7.37;;
19747;SDS011;10032;51.386;12.516;2022-12-20T06:27:48;13.03;;;7.97;;
19747;SDS011;10032;51.386;12.516;2022-12-20T06:30:14;11.23;;;7.20;;
19747;SDS011;10032;51.386;12.516;2022-12-20T06:32:40;9.60;;;6.47;;
19747;SDS011;10032;51.386;12.516;2022-12-20T06:35:05;10.93;;;7.00;;
19747;SDS011;10032;51.386;12.516;2022-12-20T06:37:31;11.40;;;6.83;;
19747;SDS011;10032;51.386;12.516;2022-12-20T06:39:57;13.43;;;7.63;;
19747;SDS011;10032;51.386;12.516;2022-12-20T06:42:22;10.33;;;7.27;;
19747;SDS011;10032;51.386;12.516;2022-12-20T06:44:48;12.33;;;6.97;;
19747;SDS011;10032;51.386;12.516;2022-12-20T06:47:13;10.50;;;6.83;;
19747;SDS011;10032;51.386;12.516;2022-12-20T06:49:40;9.57;;;7.23;;
19747;SDS011;10032;51.386;12.516;2022-12-20T06:52:05;12.63;;;6.77;;
19747;SDS011;10032;51.386;12.516;2022-12-20T06:54:31;10.03;;;6.60;;
19747;SDS011;10032;51.386;12.516;2022-12-20T06:56:56;8.70;;;6.60;;
19747;SDS011;10032;51.386;12.516;2022-12-20T06:59:21;11.13;;;7.10;;
19747;SDS011;10032;51.386;12.516;2022-12-20T07:01:47;11.73;;;6.43;;
19747;SDS011;10032;51.386;12.516;2022-12-20T07:04:12;10.83;;;7.23;;
19747;SDS011;10032;51.386;12.516;2022-12-20T07:06:38;11.47;;;7.07;;
19747;SDS011;10032;51.386;12.516;2022-12-20T07:09:03;8.40;;;6.53;;
19747;SDS011;10032;51.386;12.516;2022-12-20T07:11:29;11.83;;;7.90;;
19747;SDS011;10032;51.386;12.516;2022-12-20T07:13:55;10.53;;;6.27;;
19747;SDS011;10032;51.386;12.516;2022-12-20T07:16:21;12.00;;;6.73;;
19747;SDS011;10032;51.386;12.516;2022-12-20T07:18:50;10.50;;;6.40;;
19747;SDS011;10032;51.386;12.516;2022-12-20T07:21:17;12.97;;;6.80;;
19747;SDS011;10032;51.386;12.516;2022-12-20T07:23:43;9.03;;;6.67;;
19747;SDS011;10032;51.386;12.516;2022-12-20T07:26:10;12.87;;;7.63;;
19747;SDS011;10032;51.386;12.516;2022-12-20T07:28:35;13.10;;;7.40;;
19747;SDS011;10032;51.386;12.516;2022-12-20T07:31:01;10.97;;;6.37;;
19747;SDS011;10032;51.386;12.516;2022-12-20T07:33:28;13.60;;;7.97;;
19747;SDS011;10032;51.386;12.516;2022-12-20T07:36:00;11.37;;;7.43;;
19747;SDS011;10032;51.386;12.516;2022-12-20T07:38:30;12.57;;;8.00;;
19747;SDS011;10032;51.386;12.516;2022-12-20T07:40:56;12.67;;;7.70;;
19747;SDS011;10032;51.386;12.516;2022-12-20T07:43:22;11.20;;;8.00;;
19747;SDS011;10032;51.386;12.516;2022-12-20T07:45:47;11.97;;;8.27;;
19747;SDS011;10032;51.386;12.516;2022-12-20T07:48:13;8.83;;;7.10;;
19747;SDS011;10032;51.386;12.516;2022-12-20T07:50:38;12.17;;;8.20;;
19747;SDS011;10032;51.386;12.516;2022-12-20T07:53:05;8.10;;;5.70;;
19747;SDS011;10032;51.386;12.516;2022-12-20T07:55:33;9.50;;;6.83;;
19747;SDS011;10032;51.386;12.516;2022-12-20T07:58:04;10.90;;;6.80;;
19747;SDS011;10032;51.386;12.516;2022-12-20T08:00:31;11.13;;;7.00;;
19747;SDS011;10032;51.386;12.516;2022-12-20T08:02:59;11.43;;;6.77;;
19747;SDS011;10032;51.386;12.516;2022-12-20T08:05:31;12.53;;;6.67;;
19747;SDS011;10032;51.386;12.516;2022-12-20T08:07:58;12.33;;;6.60;;
19747;SDS011;10032;51.386;12.516;2022-12-20T08:10:26;13.97;;;7.00;;
19747;SDS011;10032;51.386;12.516;2022-12-20T08:12:52;13.00;;;7.07;;
19747;SDS011;10032;51.386;12.516;2022-12-20T08:15:19;11.70;;;7.77;;
19747;SDS011;10032;51.386;12.516;2022-12-20T08:17:47;11.33;;;6.33;;
19747;SDS011;10032;51.386;12.516;2022-12-20T08:20:13;10.13;;;6.90;;
19747;SDS011;10032;51.386;12.516;2022-12-20T08:22:39;9.97;;;6.30;;
19747;SDS011;10032;51.386;12.516;2022-12-20T08:25:04;13.20;;;6.43;;
19747;SDS011;10032;51.386;12.516;2022-12-20T08:27:30;15.17;;;9.30;;
19747;SDS011;10032;51.386;12.516;2022-12-20T08:29:56;10.60;;;6.80;;
19747;SDS011;10032;51.386;12.516;2022-12-20T08:32:21;9.70;;;5.90;;
19747;SDS011;10032;51.386;12.516;2022-12-20T08:34:46;11.73;;;6.93;;
19747;SDS011;10032;51.386;12.516;2022-12-20T08:37:14;10.60;;;6.57;;
19747;SDS011;10032;51.386;12.516;2022-12-20T08:39:40;11.33;;;7.37;;
19747;SDS011;10032;51.386;12.516;2022-12-20T08:42:06;14.07;;;7.00;;
19747;SDS011;10032;51.386;12.516;2022-12-20T08:44:31;11.67;;;6.63;;
19747;SDS011;10032;51.386;12.516;2022-12-20T08:46:57;12.17;;;7.23;;
19747;SDS011;10032;51.386;12.516;2022-12-20T08:49:22;8.27;;;6.23;;
19747;SDS011;10032;51.386;12.516;2022-12-20T08:51:47;8.57;;;6.30;;
19747;SDS011;10032;51.386;12.516;2022-12-20T08:54:13;11.00;;;7.40;;
19747;SDS011;10032;51.386;12.516;2022-12-20T08:56:38;8.40;;;5.67;;
19747;SDS011;10032;51.386;12.516;2022-12-20T08:59:04;8.70;;;6.37;;
19747;SDS011;10032;51.386;12.516;2022-12-20T09:01:29;11.97;;;8.13;;
19747;SDS011;10032;51.386;12.516;2022-12-20T09:03:57;10.73;;;7.70;;
19747;SDS011;10032;51.386;12.516;2022-12-20T09:06:23;9.37;;;6.47;;
19747;SDS011;10032;51.386;12.516;2022-12-20T09:08:49;15.93;;;8.43;;
19747;SDS011;10032;51.386;12.516;2022-12-20T09:11:16;8.97;;;7.00;;
19747;SDS011;10032;51.386;12.516;2022-12-20T09:13:43;10.57;;;6.57;;
19747;SDS011;10032;51.386;12.516;2022-12-20T09:16:11;11.03;;;7.73;;
19747;SDS011;10032;51.386;12.516;2022-12-20T09:18:38;9.47;;;6.37;;
19747;SDS011;10032;51.386;12.516;2022-12-20T09:21:04;10.20;;;6.20;;
19747;SDS011;10032;51.386;12.516;2022-12-20T09:23:31;11.10;;;7.10;;
19747;SDS011;10032;51.386;12.516;2022-12-20T09:26:04;11.30;;;7.27;;
19747;SDS011;10032;51.386;12.516;2022-12-20T09:28:31;13.17;;;8.33;;
19747;SDS011;10032;51.386;12.516;2022-12-20T09:31:00;11.70;;;7.33;;
19747;SDS011;10032;51.386;12.516;2022-12-20T09:33:28;9.50;;;6.80;;
19747;SDS011;10032;51.386;12.516;2022-12-20T09:35:54;11.03;;;7.00;;
19747;SDS011;10032;51.386;12.516;2022-12-20T09:38:20;18.40;;;9.30;;
19747;SDS011;10032;51.386;12.516;2022-12-20T09:40:46;13.77;;;8.50;;
19747;SDS011;10032;51.386;12.516;2022-12-20T09:43:15;10.40;;;7.07;;
19747;SDS011;10032;51.386;12.516;2022-12-20T09:45:41;9.93;;;6.53;;
19747;SDS011;10032;51.386;12.516;2022-12-20T09:48:09;11.27;;;7.37;;
19747;SDS011;10032;51.386;12.516;2022-12-20T09:55:42;15.30;;;7.37;;
19747;SDS011;10032;51.386;12.516;2022-12-20T10:01:36;10.57;;;6.67;;
19747;SDS011;10032;51.386;12.516;2022-12-20T10:04:05;10.83;;;7.50;;
19747;SDS011;10032;51.386;12.516;2022-12-20T10:10:08;13.27;;;8.23;;
19747;SDS011;10032;51.386;12.516;2022-12-20T10:15:28;11.67;;;7.20;;
19747;SDS011;10032;51.386;12.516;2022-12-20T10:23:03;9.73;;;6.33;;
19747;SDS011;10032;51.386;12.516;2022-12-20T10:25:37;12.23;;;5.60;;
19747;SDS011;10032;51.386;12.516;2022-12-20T10:28:10;10.90;;;6.30;;
19747;SDS011;10032;51.386;12.516;2022-12-20T10:30:38;7.63;;;5.93;;
19747;SDS011;10032;51.386;12.516;2022-12-20T10:33:03;8.13;;;5.67;;
19747;SDS011;10032;51.386;12.516;2022-12-20T10:35:29;10.00;;;6.33;;
19747;SDS011;10032;51.386;12.516;2022-12-20T10:40:41;11.40;;;7.00;;
19747;SDS011;10032;51.386;12.516;2022-12-20T10:43:18;9.77;;;6.13;;
19747;SDS011;10032;51.386;12.516;2022-12-20T10:46:02;10.30;;;6.07;;
19747;SDS011;10032;51.386;12.516;2022-12-20T10:48:31;10.97;;;6.30;;
19747;SDS011;10032;51.386;12.516;2022-12-20T10:50:59;11.87;;;7.17;;
19747;SDS011;10032;51.386;12.516;2022-12-20T10:53:28;10.20;;;5.70;;
19747;SDS011;10032;51.386;12.516;2022-12-20T10:58:36;8.33;;;5.10;;
19747;SDS011;10032;51.386;12.516;2022-12-20T11:01:15;10.77;;;6.30;;
19747;SDS011;10032;51.386;12.516;2022-12-20T11:06:24;9.53;;;5.57;;
19747;SDS011;10032;51.386;12.516;2022-12-20T11:12:01;9.70;;;6.10;;
19747;SDS011;10032;51.386;12.516;2022-12-20T11:14:31;10.27;;;6.77;;
19747;SDS011;10032;51.386;12.516;2022-12-20T11:16:59;7.20;;;4.60;;
19747;SDS011;10032;51.386;12.516;2022-12-20T11:30:17;10.30;;;6.43;;
19747;SDS011;10032;51.386;12.516;2022-12-20T11:41:09;10.40;;;6.23;;
19747;SDS011;10032;51.386;12.516;2022-12-20T11:43:51;10.63;;;5.93;;
19747;SDS011;10032;51.386;12.516;2022-12-20T11:52:03;9.80;;;6.63;;
19747;SDS011;10032;51.386;12.516;2022-12-20T11:54:40;11.53;;;6.47;;
19747;SDS011;10032;51.386;12.516;2022-12-20T11:57:29;10.60;;;6.33;;
19747;SDS011;10032;51.386;12.516;2022-12-20T12:00:00;7.27;;;5.67;;
19747;SDS011;10032;51.386;12.516;2022-12-20T12:05:03;9.27;;;5.40;;
19747;SDS011;10032;51.386;12.516;2022-12-20T12:07:40;10.63;;;6.17;;
19747;SDS011;10032;51.386;12.516;2022-12-20T12:10:15;11.20;;;6.40;;
19747;SDS011;10032;51.386;12.516;2022-12-20T12:13:10;11.03;;;7.10;;
19747;SDS011;10032;51.386;12.516;2022-12-20T12:18:24;9.20;;;6.10;;
19747;SDS011;10032;51.386;12.516;2022-12-20T12:21:05;9.33;;;5.97;;
19747;SDS011;10032;51.386;12.516;2022-12-20T12:26:26;8.37;;;4.90;;
19747;SDS011;10032;51.386;12.516;2022-12-20T12:28:57;9.10;;;6.33;;
19747;SDS011;10032;51.386;12.516;2022-12-20T12:31:28;10.93;;;6.53;;
19747;SDS011;10032;51.386;12.516;2022-12-20T12:48:10;10.20;;;6.67;;
19747;SDS011;10032;51.386;12.516;2022-12-20T12:50:46;9.63;;;6.57;;
19747;SDS011;10032;51.386;12.516;2022-12-20T12:55:43;10.30;;;5.37;;
19747;SDS011;10032;51.386;12.516;2022-12-20T13:08:48;9.57;;;5.33;;
19747;SDS011;10032;51.386;12.516;2022-12-20T13:11:37;7.00;;;5.13;;
19747;SDS011;10032;51.386;12.516;2022-12-20T13:16:48;10.07;;;6.03;;
19747;SDS011;10032;51.386;12.516;2022-12-20T13:19:35;7.90;;;5.63;;
19747;SDS011;10032;51.386;12.516;2022-12-20T13:27:11;8.20;;;6.07;;
19747;SDS011;10032;51.386;12.516;2022-12-20T13:29:52;8.20;;;5.57;;
19747;SDS011;10032;51.386;12.516;2022-12-20T13:37:52;9.70;;;5.83;;
19747;SDS011;10032;51.386;12.516;2022-12-20T13:40:20;11.03;;;5.63;;
19747;SDS011;10032;51.386;12.516;2022-12-20T13:42:55;7.10;;;5.50;;
19747;SDS011;10032;51.386;12.516;2022-12-20T13:45:23;8.07;;;5.67;;
19747;SDS011;10032;51.386;12.516;2022-12-20T13:47:54;12.73;;;6.03;;
19747;SDS011;10032;51.386;12.516;2022-12-20T13:50:28;8.60;;;5.17;;
19747;SDS011;10032;51.386;12.516;2022-12-20T13:52:59;8.40;;;5.90;;
19747;SDS011;10032;51.386;12.516;2022-12-20T13:55:34;8.07;;;5.17;;
19747;SDS011;10032;51.386;12.516;2022-12-20T13:58:05;10.27;;;5.63;;
19747;SDS011;10032;51.386;12.516;2022-12-20T14:00:36;9.27;;;5.30;;
19747;SDS011;10032;51.386;12.516;2022-12-20T14:03:02;9.30;;;6.70;;
19747;SDS011;10032;51.386;12.516;2022-12-20T14:05:32;8.73;;;5.90;;
19747;SDS011;10032;51.386;12.516;2022-12-20T14:08:08;10.83;;;5.80;;
19747;SDS011;10032;51.386;12.516;2022-12-20T14:10:39;10.13;;;5.53;;
19747;SDS011;10032;51.386;12.516;2022-12-20T14:13:18;10.70;;;5.30;;
19747;SDS011;10032;51.386;12.516;2022-12-20T14:15:46;8.30;;;5.97;;
19747;SDS011;10032;51.386;12.516;2022-12-20T14:18:22;7.50;;;5.20;;
19747;SDS011;10032;51.386;12.516;2022-12-20T14:20:58;6.77;;;4.63;;
19747;SDS011;10032;51.386;12.516;2022-12-20T14:23:39;7.87;;;5.17;;
19747;SDS011;10032;51.386;12.516;2022-12-20T14:26:12;9.63;;;5.83;;
19747;SDS011;10032;51.386;12.516;2022-12-20T14:28:41;10.60;;;5.03;;
19747;SDS011;10032;51.386;12.516;2022-12-20T14:31:23;9.37;;;5.73;;
19747;SDS011;10032;51.386;12.516;2022-12-20T14:36:49;9.20;;;5.33;;
19747;SDS011;10032;51.386;12.516;2022-12-20T14:39:28;8.40;;;4.97;;
19747;SDS011;10032;51.386;12.516;2022-12-20T14:41:59;10.57;;;5.93;;
19747;SDS011;10032;51.386;12.516;2022-12-20T14:44:26;11.47;;;6.03;;
19747;SDS011;10032;51.386;12.516;2022-12-20T14:46:54;9.33;;;6.17;;
19747;SDS011;10032;51.386;12.516;2022-12-20T14:52:16;8.50;;;6.60;;
19747;SDS011;10032;51.386;12.516;2022-12-20T14:54:47;11.00;;;5.67;;
19747;SDS011;10032;51.386;12.516;2022-12-20T14:58:05;8.40;;;5.80;;
19747;SDS011;10032;51.386;12.516;2022-12-20T15:08:12;10.07;;;6.37;;
19747;SDS011;10032;51.386;12.516;2022-12-20T15:10:41;10.13;;;5.60;;
19747;SDS011;10032;51.386;12.516;2022-12-20T15:13:21;13.07;;;6.27;;
19747;SDS011;10032;51.386;12.516;2022-12-20T15:16:14;8.50;;;5.87;;
19747;SDS011;10032;51.386;12.516;2022-12-20T15:18:53;9.67;;;6.80;;
19747;SDS011;10032;51.386;12.516;2022-12-20T15:21:26;8.50;;;6.60;;
19747;SDS011;10032;51.386;12.516;2022-12-20T15:23:54;9.03;;;6.17;;
19747;SDS011;10032;51.386;12.516;2022-12-20T15:26:22;10.67;;;6.20;;
19747;SDS011;10032;51.386;12.516;2022-12-20T15:28:49;9.33;;;5.97;;
19747;SDS011;10032;51.386;12.516;2022-12-20T15:31:15;7.50;;;5.47;;
19747;SDS011;10032;51.386;12.516;2022-12-20T15:33:43;9.87;;;5.93;;
19747;SDS011;10032;51.386;12.516;2022-12-20T15:36:16;9.43;;;5.50;;
19747;SDS011;10032;51.386;12.516;2022-12-20T15:38:46;11.50;;;6.13;;
19747;SDS011;10032;51.386;12.516;2022-12-20T15:41:23;9.20;;;5.40;;
19747;SDS011;10032;51.386;12.516;2022-12-20T15:43:53;9.03;;;5.67;;
19747;SDS011;10032;51.386;12.516;2022-12-20T15:46:20;8.73;;;5.77;;
19747;SDS011;10032;51.386;12.516;2022-12-20T15:48:46;8.53;;;6.00;;
19747;SDS011;10032;51.386;12.516;2022-12-20T15:51:16;8.77;;;5.77;;
19747;SDS011;10032;51.386;12.516;2022-12-20T15:53:45;7.57;;;5.60;;
19747;SDS011;10032;51.386;12.516;2022-12-20T15:56:13;9.30;;;5.60;;
19747;SDS011;10032;51.386;12.516;2022-12-20T15:58:43;11.47;;;6.57;;
19747;SDS011;10032;51.386;12.516;2022-12-20T16:01:10;7.60;;;4.87;;
19747;SDS011;10032;51.386;12.516;2022-12-20T16:03:38;9.47;;;5.93;;
19747;SDS011;10032;51.386;12.516;2022-12-20T16:06:03;8.87;;;5.70;;
19747;SDS011;10032;51.386;12.516;2022-12-20T16:08:29;12.07;;;8.00;;
19747;SDS011;10032;51.386;12.516;2022-12-20T16:10:54;8.23;;;6.23;;
19747;SDS011;10032;51.386;12.516;2022-12-20T16:13:23;11.67;;;6.63;;
19747;SDS011;10032;51.386;12.516;2022-12-20T16:15:49;13.87;;;6.43;;
19747;SDS011;10032;51.386;12.516;2022-12-20T16:18:15;8.47;;;5.30;;
19747;SDS011;10032;51.386;12.516;2022-12-20T16:20:41;9.07;;;5.87;;
19747;SDS011;10032;51.386;12.516;2022-12-20T16:23:17;10.13;;;6.23;;
19747;SDS011;10032;51.386;12.516;2022-12-20T16:25:46;9.70;;;5.60;;
19747;SDS011;10032;51.386;12.516;2022-12-20T16:28:13;10.80;;;6.63;;
19747;SDS011;10032;51.386;12.516;2022-12-20T16:30:38;9.27;;;5.20;;
19747;SDS011;10032;51.386;12.516;2022-12-20T16:33:04;11.40;;;6.47;;
19747;SDS011;10032;51.386;12.516;2022-12-20T16:35:31;9.73;;;6.17;;
19747;SDS011;10032;51.386;12.516;2022-12-20T16:38:00;9.57;;;5.93;;
19747;SDS011;10032;51.386;12.516;2022-12-20T16:40:26;12.77;;;7.20;;
19747;SDS011;10032;51.386;12.516;2022-12-20T16:42:57;8.97;;;5.57;;
19747;SDS011;10032;51.386;12.516;2022-12-20T16:45:24;10.80;;;6.87;;
19747;SDS011;10032;51.386;12.516;2022-12-20T16:47:52;10.60;;;6.27;;